Mound City, Texas
Current Conditions -  °F | °C
As of 5:55 PM on Sunday 23 Nov 2014 (Local Time) from KDKR Reporting Station
Clear Clear  
Wind Chill: 64°   Ceiling: Unl
Heat Index: 64°   Visibility: 10mi
Dew Point: 55°   Wind: 0mph
Humidity: 73%   Direction: NA
Pressure: 29.56"   Gusts: NA
Location:  31.4982°N, 95.4177°W
Report Text: KDKR 232355Z AUTO 00000KT 10SM CLR 18/13 A2956 RMK AO2
Loading
Personal Weather Stations






























Interactive Weather Map New forecast layout! Learn more

10-Day Weather Forecast

Advertisements
Track Severe Weather on mobile